sensor_id;sensor_type;location;lat;lon;timestamp;P1;durP1;ratioP1;P2;durP2;ratioP2
67508;SDS011;54354;44.724;11.284;2024-01-30T00:01:19;422.42;;;49.38;;
67508;SDS011;54354;44.724;11.284;2024-01-30T00:03:45;247.88;;;45.05;;
67508;SDS011;54354;44.724;11.284;2024-01-30T00:06:11;262.63;;;43.72;;
67508;SDS011;54354;44.724;11.284;2024-01-30T00:08:37;273.75;;;43.38;;
67508;SDS011;54354;44.724;11.284;2024-01-30T00:11:03;338.42;;;43.15;;
67508;SDS011;54354;44.724;11.284;2024-01-30T00:13:29;367.15;;;44.35;;
67508;SDS011;54354;44.724;11.284;2024-01-30T00:15:54;410.45;;;45.10;;
67508;SDS011;54354;44.724;11.284;2024-01-30T00:18:20;249.98;;;46.50;;
67508;SDS011;54354;44.724;11.284;2024-01-30T00:20:46;248.70;;;44.47;;
67508;SDS011;54354;44.724;11.284;2024-01-30T00:23:12;272.75;;;41.85;;
67508;SDS011;54354;44.724;11.284;2024-01-30T00:25:38;220.93;;;42.13;;
67508;SDS011;54354;44.724;11.284;2024-01-30T00:28:03;144.23;;;40.05;;
67508;SDS011;54354;44.724;11.284;2024-01-30T00:30:29;220.15;;;42.13;;
67508;SDS011;54354;44.724;11.284;2024-01-30T00:32:54;276.40;;;42.65;;
67508;SDS011;54354;44.724;11.284;2024-01-30T00:35:20;281.73;;;43.95;;
67508;SDS011;54354;44.724;11.284;2024-01-30T00:37:47;168.70;;;44.03;;
67508;SDS011;54354;44.724;11.284;2024-01-30T00:40:12;284.85;;;43.80;;
67508;SDS011;54354;44.724;11.284;2024-01-30T00:42:43;160.90;;;40.92;;
67508;SDS011;54354;44.724;11.284;2024-01-30T00:45:16;331.33;;;42.10;;
67508;SDS011;54354;44.724;11.284;2024-01-30T00:47:42;327.90;;;42.83;;
67508;SDS011;54354;44.724;11.284;2024-01-30T00:50:08;238.82;;;42.92;;
67508;SDS011;54354;44.724;11.284;2024-01-30T00:52:34;326.13;;;43.10;;
67508;SDS011;54354;44.724;11.284;2024-01-30T00:55:00;350.83;;;44.38;;
67508;SDS011;54354;44.724;11.284;2024-01-30T00:57:26;358.23;;;43.95;;
67508;SDS011;54354;44.724;11.284;2024-01-30T00:59:52;200.57;;;43.10;;
67508;SDS011;54354;44.724;11.284;2024-01-30T01:02:17;340.17;;;43.97;;
67508;SDS011;54354;44.724;11.284;2024-01-30T01:04:44;185.93;;;43.70;;
67508;SDS011;54354;44.724;11.284;2024-01-30T01:07:10;222.73;;;42.38;;
67508;SDS011;54354;44.724;11.284;2024-01-30T01:09:36;271.85;;;42.10;;
67508;SDS011;54354;44.724;11.284;2024-01-30T01:12:02;296.90;;;44.25;;
67508;SDS011;54354;44.724;11.284;2024-01-30T01:14:28;450.58;;;46.30;;
67508;SDS011;54354;44.724;11.284;2024-01-30T01:16:53;355.17;;;45.47;;
67508;SDS011;54354;44.724;11.284;2024-01-30T01:19:19;325.40;;;46.22;;
67508;SDS011;54354;44.724;11.284;2024-01-30T01:21:44;364.38;;;48.65;;
67508;SDS011;54354;44.724;11.284;2024-01-30T01:24:10;221.32;;;47.42;;
67508;SDS011;54354;44.724;11.284;2024-01-30T01:26:36;263.45;;;44.58;;
67508;SDS011;54354;44.724;11.284;2024-01-30T01:29:01;200.13;;;44.55;;
67508;SDS011;54354;44.724;11.284;2024-01-30T01:31:29;448.08;;;45.60;;
67508;SDS011;54354;44.724;11.284;2024-01-30T01:33:55;308.77;;;46.67;;
67508;SDS011;54354;44.724;11.284;2024-01-30T01:36:20;557.50;;;51.80;;
67508;SDS011;54354;44.724;11.284;2024-01-30T01:38:46;223.70;;;47.78;;
67508;SDS011;54354;44.724;11.284;2024-01-30T01:41:11;455.77;;;48.20;;
67508;SDS011;54354;44.724;11.284;2024-01-30T01:43:37;313.75;;;48.95;;
67508;SDS011;54354;44.724;11.284;2024-01-30T01:46:04;318.73;;;48.08;;
67508;SDS011;54354;44.724;11.284;2024-01-30T01:48:31;310.17;;;48.10;;
67508;SDS011;54354;44.724;11.284;2024-01-30T01:50:57;265.10;;;50.08;;
67508;SDS011;54354;44.724;11.284;2024-01-30T01:53:24;271.75;;;47.97;;
67508;SDS011;54354;44.724;11.284;2024-01-30T01:55:49;244.35;;;48.10;;
67508;SDS011;54354;44.724;11.284;2024-01-30T01:58:18;298.38;;;47.40;;
67508;SDS011;54354;44.724;11.284;2024-01-30T02:00:45;283.25;;;49.25;;
67508;SDS011;54354;44.724;11.284;2024-01-30T02:03:11;217.90;;;50.72;;
67508;SDS011;54354;44.724;11.284;2024-01-30T02:05:39;292.48;;;48.00;;
67508;SDS011;54354;44.724;11.284;2024-01-30T02:08:07;213.40;;;49.63;;
67508;SDS011;54354;44.724;11.284;2024-01-30T02:10:33;198.25;;;48.33;;
67508;SDS011;54354;44.724;11.284;2024-01-30T02:12:59;192.35;;;49.42;;
67508;SDS011;54354;44.724;11.284;2024-01-30T02:15:25;253.68;;;49.63;;
67508;SDS011;54354;44.724;11.284;2024-01-30T02:17:50;354.42;;;49.05;;
67508;SDS011;54354;44.724;11.284;2024-01-30T02:20:16;247.48;;;47.53;;
67508;SDS011;54354;44.724;11.284;2024-01-30T02:22:41;252.75;;;47.88;;
67508;SDS011;54354;44.724;11.284;2024-01-30T02:25:08;192.85;;;46.15;;
67508;SDS011;54354;44.724;11.284;2024-01-30T02:27:34;202.88;;;47.00;;
67508;SDS011;54354;44.724;11.284;2024-01-30T02:29:59;277.85;;;45.33;;
67508;SDS011;54354;44.724;11.284;2024-01-30T02:32:24;230.02;;;46.00;;
67508;SDS011;54354;44.724;11.284;2024-01-30T02:34:50;262.98;;;47.10;;
67508;SDS011;54354;44.724;11.284;2024-01-30T02:37:16;258.80;;;45.08;;
67508;SDS011;54354;44.724;11.284;2024-01-30T02:39:42;294.33;;;47.67;;
67508;SDS011;54354;44.724;11.284;2024-01-30T02:42:07;223.23;;;47.50;;
67508;SDS011;54354;44.724;11.284;2024-01-30T02:44:33;197.93;;;47.33;;
67508;SDS011;54354;44.724;11.284;2024-01-30T02:46:58;201.10;;;48.13;;
67508;SDS011;54354;44.724;11.284;2024-01-30T02:49:24;326.90;;;48.20;;
67508;SDS011;54354;44.724;11.284;2024-01-30T02:51:49;227.00;;;49.13;;
67508;SDS011;54354;44.724;11.284;2024-01-30T02:54:15;190.38;;;47.70;;
67508;SDS011;54354;44.724;11.284;2024-01-30T02:56:41;192.82;;;44.55;;
67508;SDS011;54354;44.724;11.284;2024-01-30T02:59:07;179.88;;;45.55;;
67508;SDS011;54354;44.724;11.284;2024-01-30T03:01:32;257.05;;;44.92;;
67508;SDS011;54354;44.724;11.284;2024-01-30T03:03:58;273.45;;;47.17;;
67508;SDS011;54354;44.724;11.284;2024-01-30T03:06:23;222.68;;;46.90;;
67508;SDS011;54354;44.724;11.284;2024-01-30T03:08:49;130.25;;;48.10;;
67508;SDS011;54354;44.724;11.284;2024-01-30T03:11:14;161.85;;;46.53;;
67508;SDS011;54354;44.724;11.284;2024-01-30T03:13:40;186.38;;;45.80;;
67508;SDS011;54354;44.724;11.284;2024-01-30T03:16:06;178.63;;;44.03;;
67508;SDS011;54354;44.724;11.284;2024-01-30T03:18:33;160.82;;;45.45;;
67508;SDS011;54354;44.724;11.284;2024-01-30T03:20:59;187.93;;;46.97;;
67508;SDS011;54354;44.724;11.284;2024-01-30T03:23:24;252.23;;;47.55;;
67508;SDS011;54354;44.724;11.284;2024-01-30T03:25:50;155.57;;;47.47;;
67508;SDS011;54354;44.724;11.284;2024-01-30T03:28:15;169.25;;;47.72;;
67508;SDS011;54354;44.724;11.284;2024-01-30T03:30:41;182.77;;;46.30;;
67508;SDS011;54354;44.724;11.284;2024-01-30T03:33:06;277.63;;;46.95;;
67508;SDS011;54354;44.724;11.284;2024-01-30T03:35:32;161.25;;;44.20;;
67508;SDS011;54354;44.724;11.284;2024-01-30T03:37:57;192.38;;;46.95;;
67508;SDS011;54354;44.724;11.284;2024-01-30T03:40:23;174.57;;;45.78;;
67508;SDS011;54354;44.724;11.284;2024-01-30T03:42:48;338.00;;;48.13;;
67508;SDS011;54354;44.724;11.284;2024-01-30T03:45:14;194.85;;;46.95;;
67508;SDS011;54354;44.724;11.284;2024-01-30T03:47:39;182.52;;;45.13;;
67508;SDS011;54354;44.724;11.284;2024-01-30T03:50:08;173.88;;;46.65;;
67508;SDS011;54354;44.724;11.284;2024-01-30T03:52:34;304.58;;;48.53;;
67508;SDS011;54354;44.724;11.284;2024-01-30T03:55:00;284.75;;;46.08;;
67508;SDS011;54354;44.724;11.284;2024-01-30T03:57:25;197.73;;;44.72;;
67508;SDS011;54354;44.724;11.284;2024-01-30T03:59:51;274.52;;;47.80;;
67508;SDS011;54354;44.724;11.284;2024-01-30T04:02:16;298.60;;;49.00;;
67508;SDS011;54354;44.724;11.284;2024-01-30T04:04:43;238.50;;;48.03;;
67508;SDS011;54354;44.724;11.284;2024-01-30T04:07:08;210.43;;;46.65;;
67508;SDS011;54354;44.724;11.284;2024-01-30T04:09:34;284.70;;;49.05;;
67508;SDS011;54354;44.724;11.284;2024-01-30T04:11:59;268.52;;;47.67;;
67508;SDS011;54354;44.724;11.284;2024-01-30T04:14:25;418.63;;;49.55;;
67508;SDS011;54354;44.724;11.284;2024-01-30T04:16:50;195.40;;;46.67;;
67508;SDS011;54354;44.724;11.284;2024-01-30T04:19:16;237.25;;;47.28;;
67508;SDS011;54354;44.724;11.284;2024-01-30T04:21:41;204.50;;;49.42;;
67508;SDS011;54354;44.724;11.284;2024-01-30T04:24:07;369.45;;;51.40;;
67508;SDS011;54354;44.724;11.284;2024-01-30T04:26:32;167.82;;;48.40;;
67508;SDS011;54354;44.724;11.284;2024-01-30T04:28:58;238.90;;;48.40;;
67508;SDS011;54354;44.724;11.284;2024-01-30T04:31:23;230.43;;;47.47;;
67508;SDS011;54354;44.724;11.284;2024-01-30T04:33:49;144.50;;;46.15;;
67508;SDS011;54354;44.724;11.284;2024-01-30T04:36:14;266.58;;;47.13;;
67508;SDS011;54354;44.724;11.284;2024-01-30T04:38:40;215.63;;;48.30;;
67508;SDS011;54354;44.724;11.284;2024-01-30T04:41:05;173.68;;;49.97;;
67508;SDS011;54354;44.724;11.284;2024-01-30T04:43:31;251.23;;;47.50;;
67508;SDS011;54354;44.724;11.284;2024-01-30T04:45:56;177.25;;;48.72;;
67508;SDS011;54354;44.724;11.284;2024-01-30T04:48:22;195.90;;;46.95;;
67508;SDS011;54354;44.724;11.284;2024-01-30T04:50:47;329.23;;;47.47;;
67508;SDS011;54354;44.724;11.284;2024-01-30T04:53:13;291.88;;;48.58;;
67508;SDS011;54354;44.724;11.284;2024-01-30T04:55:38;327.90;;;50.30;;
67508;SDS011;54354;44.724;11.284;2024-01-30T04:58:04;296.83;;;50.70;;
67508;SDS011;54354;44.724;11.284;2024-01-30T05:00:29;268.13;;;49.60;;
67508;SDS011;54354;44.724;11.284;2024-01-30T05:02:55;344.60;;;50.00;;
67508;SDS011;54354;44.724;11.284;2024-01-30T05:05:21;156.90;;;49.47;;
67508;SDS011;54354;44.724;11.284;2024-01-30T05:07:47;406.70;;;49.72;;
67508;SDS011;54354;44.724;11.284;2024-01-30T05:10:12;297.00;;;52.10;;
67508;SDS011;54354;44.724;11.284;2024-01-30T05:12:39;282.17;;;49.78;;
67508;SDS011;54354;44.724;11.284;2024-01-30T05:15:05;360.15;;;60.35;;
67508;SDS011;54354;44.724;11.284;2024-01-30T05:17:30;253.55;;;56.20;;
67508;SDS011;54354;44.724;11.284;2024-01-30T05:19:56;295.52;;;52.20;;
67508;SDS011;54354;44.724;11.284;2024-01-30T05:22:21;409.60;;;54.22;;
67508;SDS011;54354;44.724;11.284;2024-01-30T05:24:47;218.70;;;50.08;;
67508;SDS011;54354;44.724;11.284;2024-01-30T05:27:12;309.20;;;51.72;;
67508;SDS011;54354;44.724;11.284;2024-01-30T05:29:41;307.48;;;48.20;;
67508;SDS011;54354;44.724;11.284;2024-01-30T05:32:06;232.45;;;47.15;;
67508;SDS011;54354;44.724;11.284;2024-01-30T05:34:32;344.83;;;48.17;;
67508;SDS011;54354;44.724;11.284;2024-01-30T05:36:58;168.73;;;46.33;;
67508;SDS011;54354;44.724;11.284;2024-01-30T05:39:23;275.42;;;48.38;;
67508;SDS011;54354;44.724;11.284;2024-01-30T05:41:49;211.07;;;47.13;;
67508;SDS011;54354;44.724;11.284;2024-01-30T05:44:14;283.15;;;47.28;;
67508;SDS011;54354;44.724;11.284;2024-01-30T05:46:40;263.15;;;44.70;;
67508;SDS011;54354;44.724;11.284;2024-01-30T05:49:05;276.17;;;49.33;;
67508;SDS011;54354;44.724;11.284;2024-01-30T05:51:31;166.13;;;46.30;;
67508;SDS011;54354;44.724;11.284;2024-01-30T05:53:56;311.08;;;45.35;;
67508;SDS011;54354;44.724;11.284;2024-01-30T05:56:22;210.55;;;44.63;;
67508;SDS011;54354;44.724;11.284;2024-01-30T05:58:48;173.95;;;42.08;;
67508;SDS011;54354;44.724;11.284;2024-01-30T06:01:15;204.80;;;42.67;;
67508;SDS011;54354;44.724;11.284;2024-01-30T06:03:41;146.90;;;39.33;;
67508;SDS011;54354;44.724;11.284;2024-01-30T06:06:08;98.72;;;38.28;;
67508;SDS011;54354;44.724;11.284;2024-01-30T06:08:34;183.30;;;38.03;;
67508;SDS011;54354;44.724;11.284;2024-01-30T06:10:59;125.00;;;38.83;;
67508;SDS011;54354;44.724;11.284;2024-01-30T06:13:25;129.77;;;36.47;;
67508;SDS011;54354;44.724;11.284;2024-01-30T06:15:51;121.90;;;35.78;;
67508;SDS011;54354;44.724;11.284;2024-01-30T06:18:17;154.85;;;35.08;;
67508;SDS011;54354;44.724;11.284;2024-01-30T06:20:42;116.65;;;35.67;;
67508;SDS011;54354;44.724;11.284;2024-01-30T06:23:08;124.97;;;36.55;;
67508;SDS011;54354;44.724;11.284;2024-01-30T06:25:33;121.00;;;38.05;;
67508;SDS011;54354;44.724;11.284;2024-01-30T06:27:59;102.97;;;37.28;;
67508;SDS011;54354;44.724;11.284;2024-01-30T06:30:24;114.18;;;36.17;;
67508;SDS011;54354;44.724;11.284;2024-01-30T06:32:50;102.45;;;33.92;;
67508;SDS011;54354;44.724;11.284;2024-01-30T06:35:15;189.80;;;34.60;;
67508;SDS011;54354;44.724;11.284;2024-01-30T06:37:42;109.25;;;35.05;;
67508;SDS011;54354;44.724;11.284;2024-01-30T06:40:08;101.15;;;34.80;;
67508;SDS011;54354;44.724;11.284;2024-01-30T06:42:34;235.10;;;35.03;;
67508;SDS011;54354;44.724;11.284;2024-01-30T06:44:59;136.88;;;34.30;;
67508;SDS011;54354;44.724;11.284;2024-01-30T06:47:25;190.82;;;34.90;;
67508;SDS011;54354;44.724;11.284;2024-01-30T06:49:50;160.85;;;36.03;;
67508;SDS011;54354;44.724;11.284;2024-01-30T06:52:16;174.50;;;35.53;;
67508;SDS011;54354;44.724;11.284;2024-01-30T06:54:41;165.13;;;36.80;;
67508;SDS011;54354;44.724;11.284;2024-01-30T06:57:07;241.98;;;40.50;;
67508;SDS011;54354;44.724;11.284;2024-01-30T06:59:36;145.50;;;36.97;;
67508;SDS011;54354;44.724;11.284;2024-01-30T07:02:02;280.88;;;37.75;;
67508;SDS011;54354;44.724;11.284;2024-01-30T07:04:28;155.10;;;37.67;;
67508;SDS011;54354;44.724;11.284;2024-01-30T07:06:53;162.35;;;36.05;;
67508;SDS011;54354;44.724;11.284;2024-01-30T07:09:19;254.30;;;37.50;;
67508;SDS011;54354;44.724;11.284;2024-01-30T07:11:45;135.63;;;38.08;;
67508;SDS011;54354;44.724;11.284;2024-01-30T07:14:10;108.85;;;37.35;;
67508;SDS011;54354;44.724;11.284;2024-01-30T07:16:36;240.35;;;36.17;;
67508;SDS011;54354;44.724;11.284;2024-01-30T07:19:02;206.13;;;37.05;;
67508;SDS011;54354;44.724;11.284;2024-01-30T07:21:28;134.15;;;37.28;;
67508;SDS011;54354;44.724;11.284;2024-01-30T07:23:54;127.95;;;37.95;;
67508;SDS011;54354;44.724;11.284;2024-01-30T07:26:20;151.23;;;39.85;;
67508;SDS011;54354;44.724;11.284;2024-01-30T07:28:46;130.73;;;40.03;;
67508;SDS011;54354;44.724;11.284;2024-01-30T07:31:11;117.30;;;37.90;;
67508;SDS011;54354;44.724;11.284;2024-01-30T07:33:37;129.20;;;38.67;;
67508;SDS011;54354;44.724;11.284;2024-01-30T07:36:03;136.02;;;40.28;;
67508;SDS011;54354;44.724;11.284;2024-01-30T07:38:31;106.35;;;39.92;;
67508;SDS011;54354;44.724;11.284;2024-01-30T07:40:57;185.18;;;39.85;;
67508;SDS011;54354;44.724;11.284;2024-01-30T07:43:22;115.95;;;39.78;;
67508;SDS011;54354;44.724;11.284;2024-01-30T07:45:48;212.85;;;41.22;;
67508;SDS011;54354;44.724;11.284;2024-01-30T07:48:14;155.95;;;42.20;;
67508;SDS011;54354;44.724;11.284;2024-01-30T07:50:39;191.52;;;41.30;;
67508;SDS011;54354;44.724;11.284;2024-01-30T07:53:05;99.78;;;41.15;;
67508;SDS011;54354;44.724;11.284;2024-01-30T07:55:31;95.20;;;39.75;;
67508;SDS011;54354;44.724;11.284;2024-01-30T07:57:57;105.50;;;41.63;;
67508;SDS011;54354;44.724;11.284;2024-01-30T08:00:24;81.43;;;39.40;;
67508;SDS011;54354;44.724;11.284;2024-01-30T08:02:50;87.03;;;39.20;;
67508;SDS011;54354;44.724;11.284;2024-01-30T08:05:15;84.38;;;40.22;;
67508;SDS011;54354;44.724;11.284;2024-01-30T08:07:41;87.85;;;37.42;;
67508;SDS011;54354;44.724;11.284;2024-01-30T08:10:08;103.28;;;37.20;;
67508;SDS011;54354;44.724;11.284;2024-01-30T08:12:33;170.15;;;38.47;;
67508;SDS011;54354;44.724;11.284;2024-01-30T08:14:59;197.80;;;39.83;;
67508;SDS011;54354;44.724;11.284;2024-01-30T08:17:24;81.10;;;37.83;;
67508;SDS011;54354;44.724;11.284;2024-01-30T08:19:50;145.75;;;37.47;;
67508;SDS011;54354;44.724;11.284;2024-01-30T08:22:16;121.43;;;37.65;;
67508;SDS011;54354;44.724;11.284;2024-01-30T08:24:41;78.65;;;36.95;;
67508;SDS011;54354;44.724;11.284;2024-01-30T08:27:07;82.40;;;37.28;;
67508;SDS011;54354;44.724;11.284;2024-01-30T08:29:35;58.05;;;34.65;;
67508;SDS011;54354;44.724;11.284;2024-01-30T08:32:01;64.50;;;36.35;;
67508;SDS011;54354;44.724;11.284;2024-01-30T08:34:27;51.33;;;32.13;;
67508;SDS011;54354;44.724;11.284;2024-01-30T08:36:53;52.83;;;33.63;;
67508;SDS011;54354;44.724;11.284;2024-01-30T08:39:18;53.25;;;32.70;;
67508;SDS011;54354;44.724;11.284;2024-01-30T08:41:44;58.33;;;33.22;;
67508;SDS011;54354;44.724;11.284;2024-01-30T08:44:10;80.28;;;35.10;;
67508;SDS011;54354;44.724;11.284;2024-01-30T08:46:36;60.10;;;33.10;;
67508;SDS011;54354;44.724;11.284;2024-01-30T08:49:02;55.00;;;33.35;;
67508;SDS011;54354;44.724;11.284;2024-01-30T08:51:29;63.10;;;33.80;;
67508;SDS011;54354;44.724;11.284;2024-01-30T08:53:54;59.78;;;33.70;;
67508;SDS011;54354;44.724;11.284;2024-01-30T08:56:20;58.15;;;33.50;;
67508;SDS011;54354;44.724;11.284;2024-01-30T08:58:46;63.67;;;35.75;;
67508;SDS011;54354;44.724;11.284;2024-01-30T09:01:11;56.95;;;34.85;;
67508;SDS011;54354;44.724;11.284;2024-01-30T09:03:37;63.50;;;36.45;;
67508;SDS011;54354;44.724;11.284;2024-01-30T09:06:08;58.08;;;36.05;;
67508;SDS011;54354;44.724;11.284;2024-01-30T09:08:34;54.28;;;36.60;;
67508;SDS011;54354;44.724;11.284;2024-01-30T09:10:59;53.75;;;35.00;;
67508;SDS011;54354;44.724;11.284;2024-01-30T09:13:25;54.78;;;36.80;;
67508;SDS011;54354;44.724;11.284;2024-01-30T09:15:50;57.03;;;38.53;;
67508;SDS011;54354;44.724;11.284;2024-01-30T09:18:16;61.85;;;37.95;;
67508;SDS011;54354;44.724;11.284;2024-01-30T09:20:42;60.65;;;38.72;;
67508;SDS011;54354;44.724;11.284;2024-01-30T09:23:07;62.72;;;36.17;;
67508;SDS011;54354;44.724;11.284;2024-01-30T09:25:33;58.97;;;39.10;;
67508;SDS011;54354;44.724;11.284;2024-01-30T09:27:59;50.63;;;35.75;;
67508;SDS011;54354;44.724;11.284;2024-01-30T09:30:25;56.30;;;36.22;;
67508;SDS011;54354;44.724;11.284;2024-01-30T09:32:50;52.35;;;37.17;;
67508;SDS011;54354;44.724;11.284;2024-01-30T09:35:16;55.55;;;37.95;;
67508;SDS011;54354;44.724;11.284;2024-01-30T09:37:41;60.15;;;37.97;;
67508;SDS011;54354;44.724;11.284;2024-01-30T09:40:07;49.40;;;34.95;;
67508;SDS011;54354;44.724;11.284;2024-01-30T09:42:34;53.75;;;36.67;;
67508;SDS011;54354;44.724;11.284;2024-01-30T09:45:03;52.95;;;36.92;;
67508;SDS011;54354;44.724;11.284;2024-01-30T09:47:31;49.97;;;35.88;;
67508;SDS011;54354;44.724;11.284;2024-01-30T09:50:06;54.35;;;37.13;;
67508;SDS011;54354;44.724;11.284;2024-01-30T09:52:33;53.40;;;37.28;;
67508;SDS011;54354;44.724;11.284;2024-01-30T09:55:02;55.22;;;39.00;;
67508;SDS011;54354;44.724;11.284;2024-01-30T09:57:28;51.60;;;36.65;;
67508;SDS011;54354;44.724;11.284;2024-01-30T09:59:53;55.03;;;38.17;;
67508;SDS011;54354;44.724;11.284;2024-01-30T10:02:19;55.80;;;39.95;;
67508;SDS011;54354;44.724;11.284;2024-01-30T10:04:49;51.53;;;38.92;;
67508;SDS011;54354;44.724;11.284;2024-01-30T10:07:15;55.28;;;39.88;;
67508;SDS011;54354;44.724;11.284;2024-01-30T10:09:45;50.92;;;37.00;;
67508;SDS011;54354;44.724;11.284;2024-01-30T10:12:11;50.13;;;36.40;;
67508;SDS011;54354;44.724;11.284;2024-01-30T10:14:40;48.00;;;34.65;;
67508;SDS011;54354;44.724;11.284;2024-01-30T10:17:09;47.25;;;35.15;;
67508;SDS011;54354;44.724;11.284;2024-01-30T10:19:35;47.10;;;36.10;;
67508;SDS011;54354;44.724;11.284;2024-01-30T10:22:02;47.25;;;34.80;;
67508;SDS011;54354;44.724;11.284;2024-01-30T10:24:28;48.58;;;36.20;;
67508;SDS011;54354;44.724;11.284;2024-01-30T10:26:57;47.60;;;36.58;;
67508;SDS011;54354;44.724;11.284;2024-01-30T10:29:24;50.50;;;37.08;;
67508;SDS011;54354;44.724;11.284;2024-01-30T10:31:59;46.60;;;35.45;;
67508;SDS011;54354;44.724;11.284;2024-01-30T10:34:29;56.17;;;38.53;;
67508;SDS011;54354;44.724;11.284;2024-01-30T10:37:16;53.75;;;38.13;;
67508;SDS011;54354;44.724;11.284;2024-01-30T10:39:42;57.25;;;40.85;;
67508;SDS011;54354;44.724;11.284;2024-01-30T10:42:18;60.10;;;42.72;;
67508;SDS011;54354;44.724;11.284;2024-01-30T10:44:47;67.80;;;43.97;;
67508;SDS011;54354;44.724;11.284;2024-01-30T10:47:21;60.28;;;40.15;;
67508;SDS011;54354;44.724;11.284;2024-01-30T10:49:52;58.90;;;40.10;;
67508;SDS011;54354;44.724;11.284;2024-01-30T10:52:19;63.47;;;41.58;;
67508;SDS011;54354;44.724;11.284;2024-01-30T10:54:45;58.25;;;41.92;;
67508;SDS011;54354;44.724;11.284;2024-01-30T10:57:12;62.28;;;41.95;;
67508;SDS011;54354;44.724;11.284;2024-01-30T10:59:40;60.60;;;41.33;;
67508;SDS011;54354;44.724;11.284;2024-01-30T11:02:08;66.13;;;43.88;;
67508;SDS011;54354;44.724;11.284;2024-01-30T11:04:38;60.15;;;43.42;;
67508;SDS011;54354;44.724;11.284;2024-01-30T11:07:18;61.28;;;43.75;;
67508;SDS011;54354;44.724;11.284;2024-01-30T11:10:19;65.85;;;43.95;;
67508;SDS011;54354;44.724;11.284;2024-01-30T11:12:40;66.75;;;43.25;;
67508;SDS011;54354;44.724;11.284;2024-01-30T11:15:14;67.75;;;40.90;;
67508;SDS011;54354;44.724;11.284;2024-01-30T11:20:16;57.13;;;42.10;;
67508;SDS011;54354;44.724;11.284;2024-01-30T11:22:46;55.47;;;40.55;;
67508;SDS011;54354;44.724;11.284;2024-01-30T11:25:16;59.90;;;42.38;;
67508;SDS011;54354;44.724;11.284;2024-01-30T11:27:43;63.63;;;42.75;;
67508;SDS011;54354;44.724;11.284;2024-01-30T11:30:10;70.60;;;43.88;;
67508;SDS011;54354;44.724;11.284;2024-01-30T11:32:36;63.72;;;39.80;;
67508;SDS011;54354;44.724;11.284;2024-01-30T11:35:05;55.58;;;40.58;;
67508;SDS011;54354;44.724;11.284;2024-01-30T11:37:36;55.78;;;39.97;;
67508;SDS011;54354;44.724;11.284;2024-01-30T11:40:03;52.03;;;40.05;;
67508;SDS011;54354;44.724;11.284;2024-01-30T11:42:29;49.28;;;38.28;;
67508;SDS011;54354;44.724;11.284;2024-01-30T11:44:56;49.45;;;38.08;;
67508;SDS011;54354;44.724;11.284;2024-01-30T11:47:22;50.03;;;39.10;;
67508;SDS011;54354;44.724;11.284;2024-01-30T11:49:48;47.63;;;38.22;;
67508;SDS011;54354;44.724;11.284;2024-01-30T11:52:14;44.50;;;37.00;;
67508;SDS011;54354;44.724;11.284;2024-01-30T11:54:39;44.13;;;35.58;;
67508;SDS011;54354;44.724;11.284;2024-01-30T11:57:05;61.05;;;37.15;;
67508;SDS011;54354;44.724;11.284;2024-01-30T11:59:31;42.97;;;35.72;;
67508;SDS011;54354;44.724;11.284;2024-01-30T12:01:57;41.70;;;35.28;;
67508;SDS011;54354;44.724;11.284;2024-01-30T12:04:22;51.13;;;36.65;;
67508;SDS011;54354;44.724;11.284;2024-01-30T12:06:51;58.38;;;37.10;;
67508;SDS011;54354;44.724;11.284;2024-01-30T12:09:17;54.20;;;39.90;;
67508;SDS011;54354;44.724;11.284;2024-01-30T12:11:46;46.60;;;37.78;;
67508;SDS011;54354;44.724;11.284;2024-01-30T12:14:12;45.72;;;37.33;;
67508;SDS011;54354;44.724;11.284;2024-01-30T12:20:06;47.45;;;37.45;;
67508;SDS011;54354;44.724;11.284;2024-01-30T12:22:53;45.00;;;37.67;;
67508;SDS011;54354;44.724;11.284;2024-01-30T12:25:20;44.58;;;36.60;;
67508;SDS011;54354;44.724;11.284;2024-01-30T12:27:46;47.70;;;37.97;;
67508;SDS011;54354;44.724;11.284;2024-01-30T12:30:15;49.42;;;38.75;;
67508;SDS011;54354;44.724;11.284;2024-01-30T12:32:42;47.05;;;39.00;;
67508;SDS011;54354;44.724;11.284;2024-01-30T12:35:19;47.33;;;38.38;;
67508;SDS011;54354;44.724;11.284;2024-01-30T12:37:45;45.35;;;37.08;;
67508;SDS011;54354;44.724;11.284;2024-01-30T12:40:13;45.92;;;37.67;;
67508;SDS011;54354;44.724;11.284;2024-01-30T12:42:40;45.55;;;36.92;;
67508;SDS011;54354;44.724;11.284;2024-01-30T12:45:08;45.72;;;37.13;;
67508;SDS011;54354;44.724;11.284;2024-01-30T12:47:34;47.13;;;38.33;;
67508;SDS011;54354;44.724;11.284;2024-01-30T12:49:59;52.78;;;40.72;;
67508;SDS011;54354;44.724;11.284;2024-01-30T12:52:25;48.53;;;39.42;;
67508;SDS011;54354;44.724;11.284;2024-01-30T12:54:51;44.67;;;36.70;;
67508;SDS011;54354;44.724;11.284;2024-01-30T12:57:17;41.30;;;35.53;;
67508;SDS011;54354;44.724;11.284;2024-01-30T12:59:43;47.85;;;37.30;;
67508;SDS011;54354;44.724;11.284;2024-01-30T13:02:09;44.22;;;36.38;;
67508;SDS011;54354;44.724;11.284;2024-01-30T13:04:35;43.30;;;37.65;;
67508;SDS011;54354;44.724;11.284;2024-01-30T13:07:01;50.72;;;37.92;;
67508;SDS011;54354;44.724;11.284;2024-01-30T13:09:29;43.05;;;35.90;;
67508;SDS011;54354;44.724;11.284;2024-01-30T13:11:55;44.70;;;37.55;;
67508;SDS011;54354;44.724;11.284;2024-01-30T13:14:20;44.42;;;38.00;;
67508;SDS011;54354;44.724;11.284;2024-01-30T13:16:46;46.85;;;37.45;;
67508;SDS011;54354;44.724;11.284;2024-01-30T13:19:12;44.80;;;37.88;;
67508;SDS011;54354;44.724;11.284;2024-01-30T13:21:37;46.67;;;37.67;;
67508;SDS011;54354;44.724;11.284;2024-01-30T13:24:03;43.42;;;36.55;;
67508;SDS011;54354;44.724;11.284;2024-01-30T13:26:31;44.90;;;35.83;;
67508;SDS011;54354;44.724;11.284;2024-01-30T13:28:57;43.83;;;37.72;;
67508;SDS011;54354;44.724;11.284;2024-01-30T13:31:23;45.65;;;37.88;;
67508;SDS011;54354;44.724;11.284;2024-01-30T13:33:48;46.60;;;37.78;;
67508;SDS011;54354;44.724;11.284;2024-01-30T13:36:14;47.60;;;38.92;;
67508;SDS011;54354;44.724;11.284;2024-01-30T13:38:40;46.40;;;38.58;;
67508;SDS011;54354;44.724;11.284;2024-01-30T13:41:06;44.28;;;37.25;;
67508;SDS011;54354;44.724;11.284;2024-01-30T13:43:32;45.67;;;36.58;;
67508;SDS011;54354;44.724;11.284;2024-01-30T13:45:57;44.20;;;37.72;;
67508;SDS011;54354;44.724;11.284;2024-01-30T13:48:23;43.72;;;36.22;;
67508;SDS011;54354;44.724;11.284;2024-01-30T13:50:48;42.25;;;37.35;;
67508;SDS011;54354;44.724;11.284;2024-01-30T13:53:14;47.47;;;39.08;;
67508;SDS011;54354;44.724;11.284;2024-01-30T13:55:40;44.30;;;37.85;;
67508;SDS011;54354;44.724;11.284;2024-01-30T13:58:05;47.08;;;39.53;;
67508;SDS011;54354;44.724;11.284;2024-01-30T14:00:33;45.75;;;38.35;;
67508;SDS011;54354;44.724;11.284;2024-01-30T14:02:59;47.85;;;39.75;;